sensor_id;sensor_type;location;lat;lon;timestamp;temperature;humidity
69054;DHT22;56125;52.242;4.756;2022-11-12T00:04:04;19.10;54.30
69054;DHT22;56125;52.242;4.756;2022-11-12T00:09:06;19.00;54.20
69054;DHT22;56125;52.242;4.756;2022-11-12T00:14:07;19.00;54.10
69054;DHT22;56125;52.242;4.756;2022-11-12T00:19:08;19.10;54.10
69054;DHT22;56125;52.242;4.756;2022-11-12T00:24:09;19.10;54.20
69054;DHT22;56125;52.242;4.756;2022-11-12T00:29:10;19.10;54.10
69054;DHT22;56125;52.242;4.756;2022-11-12T00:34:11;19.10;54.00
69054;DHT22;56125;52.242;4.756;2022-11-12T00:39:13;19.10;54.10
69054;DHT22;56125;52.242;4.756;2022-11-12T00:44:14;19.10;54.10
69054;DHT22;56125;52.242;4.756;2022-11-12T00:49:15;19.10;54.10
69054;DHT22;56125;52.242;4.756;2022-11-12T00:54:16;19.10;54.10
69054;DHT22;56125;52.242;4.756;2022-11-12T00:59:17;19.10;54.10
69054;DHT22;56125;52.242;4.756;2022-11-12T01:04:18;19.10;54.10
69054;DHT22;56125;52.242;4.756;2022-11-12T01:09:19;19.10;54.10
69054;DHT22;56125;52.242;4.756;2022-11-12T01:14:20;19.10;54.20
69054;DHT22;56125;52.242;4.756;2022-11-12T01:19:21;19.10;54.30
69054;DHT22;56125;52.242;4.756;2022-11-12T01:24:22;19.10;54.30
69054;DHT22;56125;52.242;4.756;2022-11-12T01:29:23;19.10;54.30
69054;DHT22;56125;52.242;4.756;2022-11-12T01:34:25;19.10;54.30
69054;DHT22;56125;52.242;4.756;2022-11-12T01:39:26;19.10;54.30
69054;DHT22;56125;52.242;4.756;2022-11-12T01:44:30;19.10;54.40
69054;DHT22;56125;52.242;4.756;2022-11-12T01:49:38;19.10;54.40
69054;DHT22;56125;52.242;4.756;2022-11-12T01:54:42;19.10;54.60
69054;DHT22;56125;52.242;4.756;2022-11-12T01:59:46;19.00;54.60
69054;DHT22;56125;52.242;4.756;2022-11-12T02:04:49;19.00;54.60
69054;DHT22;56125;52.242;4.756;2022-11-12T02:09:51;19.00;54.70
69054;DHT22;56125;52.242;4.756;2022-11-12T02:14:53;19.00;54.70
69054;DHT22;56125;52.242;4.756;2022-11-12T02:19:58;19.00;54.70
69054;DHT22;56125;52.242;4.756;2022-11-12T02:24:59;19.00;54.80
69054;DHT22;56125;52.242;4.756;2022-11-12T02:30:00;19.00;54.90
69054;DHT22;56125;52.242;4.756;2022-11-12T02:35:01;19.00;54.90
69054;DHT22;56125;52.242;4.756;2022-11-12T02:40:02;19.00;54.90
69054;DHT22;56125;52.242;4.756;2022-11-12T02:45:04;19.00;55.00
69054;DHT22;56125;52.242;4.756;2022-11-12T02:50:05;19.00;55.10
69054;DHT22;56125;52.242;4.756;2022-11-12T02:55:08;19.00;55.10
69054;DHT22;56125;52.242;4.756;2022-11-12T03:00:11;18.90;55.10
69054;DHT22;56125;52.242;4.756;2022-11-12T03:05:13;18.90;55.10
69054;DHT22;56125;52.242;4.756;2022-11-12T03:10:14;18.90;55.10
69054;DHT22;56125;52.242;4.756;2022-11-12T03:15:15;18.90;55.20
69054;DHT22;56125;52.242;4.756;2022-11-12T03:20:17;18.90;55.10
69054;DHT22;56125;52.242;4.756;2022-11-12T03:25:18;18.90;55.40
69054;DHT22;56125;52.242;4.756;2022-11-12T03:30:19;18.90;55.20
69054;DHT22;56125;52.242;4.756;2022-11-12T03:35:22;18.80;55.30
69054;DHT22;56125;52.242;4.756;2022-11-12T03:40:23;18.80;55.10
69054;DHT22;56125;52.242;4.756;2022-11-12T03:45:26;18.90;55.30
69054;DHT22;56125;52.242;4.756;2022-11-12T03:50:28;18.80;55.30
69054;DHT22;56125;52.242;4.756;2022-11-12T03:55:29;18.80;55.40
69054;DHT22;56125;52.242;4.756;2022-11-12T04:00:30;18.80;55.30
69054;DHT22;56125;52.242;4.756;2022-11-12T04:05:31;18.70;55.40
69054;DHT22;56125;52.242;4.756;2022-11-12T04:10:51;18.70;55.50
69054;DHT22;56125;52.242;4.756;2022-11-12T04:16:00;18.70;55.60
69054;DHT22;56125;52.242;4.756;2022-11-12T04:21:38;18.70;55.80
69054;DHT22;56125;52.242;4.756;2022-11-12T04:26:51;18.60;55.70
69054;DHT22;56125;52.242;4.756;2022-11-12T04:31:52;18.60;55.80
69054;DHT22;56125;52.242;4.756;2022-11-12T04:36:53;18.60;55.80
69054;DHT22;56125;52.242;4.756;2022-11-12T04:41:54;18.60;55.60
69054;DHT22;56125;52.242;4.756;2022-11-12T04:47:14;18.60;55.70
69054;DHT22;56125;52.242;4.756;2022-11-12T04:52:15;18.50;56.30
69054;DHT22;56125;52.242;4.756;2022-11-12T04:57:16;18.50;55.60
69054;DHT22;56125;52.242;4.756;2022-11-12T05:02:17;18.50;55.80
69054;DHT22;56125;52.242;4.756;2022-11-12T05:07:18;18.50;55.80
69054;DHT22;56125;52.242;4.756;2022-11-12T05:12:19;18.50;55.70
69054;DHT22;56125;52.242;4.756;2022-11-12T05:17:20;18.50;55.90
69054;DHT22;56125;52.242;4.756;2022-11-12T05:22:21;18.50;55.90
69054;DHT22;56125;52.242;4.756;2022-11-12T05:27:22;18.50;55.80
69054;DHT22;56125;52.242;4.756;2022-11-12T05:32:24;18.40;55.80
69054;DHT22;56125;52.242;4.756;2022-11-12T05:37:25;18.40;55.90
69054;DHT22;56125;52.242;4.756;2022-11-12T05:42:26;18.40;55.80
69054;DHT22;56125;52.242;4.756;2022-11-12T05:47:27;18.40;55.90
69054;DHT22;56125;52.242;4.756;2022-11-12T05:52:28;18.40;56.00
69054;DHT22;56125;52.242;4.756;2022-11-12T05:57:29;18.40;56.00
69054;DHT22;56125;52.242;4.756;2022-11-12T06:02:30;18.40;56.00
69054;DHT22;56125;52.242;4.756;2022-11-12T06:07:31;18.40;56.00
69054;DHT22;56125;52.242;4.756;2022-11-12T06:12:32;18.40;56.10
69054;DHT22;56125;52.242;4.756;2022-11-12T06:17:33;18.40;56.00
69054;DHT22;56125;52.242;4.756;2022-11-12T06:22:34;18.40;55.90
69054;DHT22;56125;52.242;4.756;2022-11-12T06:27:36;18.30;55.80
69054;DHT22;56125;52.242;4.756;2022-11-12T06:32:37;18.40;55.70
69054;DHT22;56125;52.242;4.756;2022-11-12T06:37:38;18.30;55.70
69054;DHT22;56125;52.242;4.756;2022-11-12T06:42:39;18.30;55.60
69054;DHT22;56125;52.242;4.756;2022-11-12T06:47:40;18.30;55.60
69054;DHT22;56125;52.242;4.756;2022-11-12T06:52:41;18.30;55.50
69054;DHT22;56125;52.242;4.756;2022-11-12T06:57:42;18.30;55.60
69054;DHT22;56125;52.242;4.756;2022-11-12T07:02:43;18.30;55.40
69054;DHT22;56125;52.242;4.756;2022-11-12T07:07:44;18.30;55.50
69054;DHT22;56125;52.242;4.756;2022-11-12T07:12:45;18.30;55.30
69054;DHT22;56125;52.242;4.756;2022-11-12T07:17:46;18.30;55.30
69054;DHT22;56125;52.242;4.756;2022-11-12T07:22:47;18.30;55.40
69054;DHT22;56125;52.242;4.756;2022-11-12T07:27:48;18.30;56.30
69054;DHT22;56125;52.242;4.756;2022-11-12T07:32:49;18.20;55.10
69054;DHT22;56125;52.242;4.756;2022-11-12T07:37:51;18.20;54.90
69054;DHT22;56125;52.242;4.756;2022-11-12T07:42:53;18.20;55.00
69054;DHT22;56125;52.242;4.756;2022-11-12T07:47:57;18.20;55.00
69054;DHT22;56125;52.242;4.756;2022-11-12T07:52:59;18.20;54.90
69054;DHT22;56125;52.242;4.756;2022-11-12T07:58:00;18.20;55.40
69054;DHT22;56125;52.242;4.756;2022-11-12T08:03:01;18.20;54.80
69054;DHT22;56125;52.242;4.756;2022-11-12T08:08:02;18.20;54.90
69054;DHT22;56125;52.242;4.756;2022-11-12T08:13:03;18.20;54.70
69054;DHT22;56125;52.242;4.756;2022-11-12T08:18:04;18.20;54.70
69054;DHT22;56125;52.242;4.756;2022-11-12T08:23:05;18.20;54.80
69054;DHT22;56125;52.242;4.756;2022-11-12T08:28:06;18.20;54.80
69054;DHT22;56125;52.242;4.756;2022-11-12T08:33:07;18.20;54.80
69054;DHT22;56125;52.242;4.756;2022-11-12T08:38:08;18.20;54.80
69054;DHT22;56125;52.242;4.756;2022-11-12T08:43:10;18.20;54.90
69054;DHT22;56125;52.242;4.756;2022-11-12T08:48:12;18.20;54.90
69054;DHT22;56125;52.242;4.756;2022-11-12T08:53:14;18.20;55.00
69054;DHT22;56125;52.242;4.756;2022-11-12T08:58:15;18.20;54.90
69054;DHT22;56125;52.242;4.756;2022-11-12T09:03:18;18.20;54.90
69054;DHT22;56125;52.242;4.756;2022-11-12T09:08:22;18.20;54.90
69054;DHT22;56125;52.242;4.756;2022-11-12T09:13:23;18.20;54.90
69054;DHT22;56125;52.242;4.756;2022-11-12T09:18:24;18.20;54.90
69054;DHT22;56125;52.242;4.756;2022-11-12T09:23:25;18.20;55.00
69054;DHT22;56125;52.242;4.756;2022-11-12T09:28:26;18.20;55.20
69054;DHT22;56125;52.242;4.756;2022-11-12T09:33:32;18.20;55.10
69054;DHT22;56125;52.242;4.756;2022-11-12T09:38:33;18.20;55.10
69054;DHT22;56125;52.242;4.756;2022-11-12T09:43:39;18.20;55.10
69054;DHT22;56125;52.242;4.756;2022-11-12T09:48:47;18.20;55.00
69054;DHT22;56125;52.242;4.756;2022-11-12T09:53:57;18.20;56.00
69054;DHT22;56125;52.242;4.756;2022-11-12T09:58:58;18.20;55.00
69054;DHT22;56125;52.242;4.756;2022-11-12T10:09:19;18.20;55.30
69054;DHT22;56125;52.242;4.756;2022-11-12T10:14:57;18.20;55.40
69054;DHT22;56125;52.242;4.756;2022-11-12T10:20:28;18.20;55.20
69054;DHT22;56125;52.242;4.756;2022-11-12T10:25:32;18.30;55.50
69054;DHT22;56125;52.242;4.756;2022-11-12T10:30:34;18.20;55.40
69054;DHT22;56125;52.242;4.756;2022-11-12T10:35:36;18.30;55.50
69054;DHT22;56125;52.242;4.756;2022-11-12T10:40:39;18.30;56.60
69054;DHT22;56125;52.242;4.756;2022-11-12T10:45:41;18.30;55.50
69054;DHT22;56125;52.242;4.756;2022-11-12T10:50:42;18.30;55.60
69054;DHT22;56125;52.242;4.756;2022-11-12T10:56:01;18.30;55.90
69054;DHT22;56125;52.242;4.756;2022-11-12T11:01:04;18.30;55.70
69054;DHT22;56125;52.242;4.756;2022-11-12T11:06:18;18.30;55.80
69054;DHT22;56125;52.242;4.756;2022-11-12T11:11:27;18.30;55.80
69054;DHT22;56125;52.242;4.756;2022-11-12T11:16:28;18.30;55.90
69054;DHT22;56125;52.242;4.756;2022-11-12T11:26:45;18.30;55.80
69054;DHT22;56125;52.242;4.756;2022-11-12T11:31:59;18.30;55.90
69054;DHT22;56125;52.242;4.756;2022-11-12T11:37:24;18.30;55.90
69054;DHT22;56125;52.242;4.756;2022-11-12T11:42:50;18.30;55.90
69054;DHT22;56125;52.242;4.756;2022-11-12T11:48:01;18.30;55.80
69054;DHT22;56125;52.242;4.756;2022-11-12T11:58:37;18.30;55.80
69054;DHT22;56125;52.242;4.756;2022-11-12T12:09:10;18.30;55.70
69054;DHT22;56125;52.242;4.756;2022-11-12T12:14:46;18.40;55.80
69054;DHT22;56125;52.242;4.756;2022-11-12T12:19:55;18.40;55.70
69054;DHT22;56125;52.242;4.756;2022-11-12T12:25:07;18.40;55.80
69054;DHT22;56125;52.242;4.756;2022-11-12T12:30:29;18.40;55.70
69054;DHT22;56125;52.242;4.756;2022-11-12T12:35:54;18.40;55.80
69054;DHT22;56125;52.242;4.756;2022-11-12T12:41:11;18.40;55.70
69054;DHT22;56125;52.242;4.756;2022-11-12T12:46:16;18.40;55.60
69054;DHT22;56125;52.242;4.756;2022-11-12T12:51:21;18.40;56.00
69054;DHT22;56125;52.242;4.756;2022-11-12T13:01:33;18.50;56.20
69054;DHT22;56125;52.242;4.756;2022-11-12T13:11:48;18.50;56.10
69054;DHT22;56125;52.242;4.756;2022-11-12T13:43:09;18.60;57.70
69054;DHT22;56125;52.242;4.756;2022-11-12T13:48:16;18.70;59.40
69054;DHT22;56125;52.242;4.756;2022-11-12T13:53:21;18.80;59.30
69054;DHT22;56125;52.242;4.756;2022-11-12T13:58:30;18.90;59.30
69054;DHT22;56125;52.242;4.756;2022-11-12T14:03:45;19.00;58.90
69054;DHT22;56125;52.242;4.756;2022-11-12T14:08:51;19.00;58.50
69054;DHT22;56125;52.242;4.756;2022-11-12T14:14:24;19.00;58.20
69054;DHT22;56125;52.242;4.756;2022-11-12T14:25:22;19.00;58.30
69054;DHT22;56125;52.242;4.756;2022-11-12T14:30:26;18.90;58.00
69054;DHT22;56125;52.242;4.756;2022-11-12T14:35:32;18.90;57.80
69054;DHT22;56125;52.242;4.756;2022-11-12T14:45:48;18.90;57.90
69054;DHT22;56125;52.242;4.756;2022-11-12T14:50:55;18.90;57.70
69054;DHT22;56125;52.242;4.756;2022-11-12T14:55:59;18.80;57.70
69054;DHT22;56125;52.242;4.756;2022-11-12T15:06:29;18.80;57.60
69054;DHT22;56125;52.242;4.756;2022-11-12T15:11:35;18.90;57.60
69054;DHT22;56125;52.242;4.756;2022-11-12T15:16:36;18.80;57.60
69054;DHT22;56125;52.242;4.756;2022-11-12T15:21:47;18.80;57.50
69054;DHT22;56125;52.242;4.756;2022-11-12T15:26:49;18.90;57.60
69054;DHT22;56125;52.242;4.756;2022-11-12T15:36:54;18.80;57.70
69054;DHT22;56125;52.242;4.756;2022-11-12T15:42:05;18.80;57.70
69054;DHT22;56125;52.242;4.756;2022-11-12T15:47:19;18.80;57.60
69054;DHT22;56125;52.242;4.756;2022-11-12T15:52:21;18.80;57.60
69054;DHT22;56125;52.242;4.756;2022-11-12T15:57:28;18.80;57.60
69054;DHT22;56125;52.242;4.756;2022-11-12T16:02:29;18.70;57.50
69054;DHT22;56125;52.242;4.756;2022-11-12T16:07:30;18.70;57.50
69054;DHT22;56125;52.242;4.756;2022-11-12T16:12:32;18.70;57.50
69054;DHT22;56125;52.242;4.756;2022-11-12T16:17:33;18.70;57.40
69054;DHT22;56125;52.242;4.756;2022-11-12T16:22:34;18.70;57.30
69054;DHT22;56125;52.242;4.756;2022-11-12T16:27:37;18.70;57.30
69054;DHT22;56125;52.242;4.756;2022-11-12T16:32:38;18.70;57.20
69054;DHT22;56125;52.242;4.756;2022-11-12T16:37:44;18.60;57.20
69054;DHT22;56125;52.242;4.756;2022-11-12T16:42:46;18.70;57.10
69054;DHT22;56125;52.242;4.756;2022-11-12T16:47:57;18.60;57.10
69054;DHT22;56125;52.242;4.756;2022-11-12T16:52:58;18.60;57.00
69054;DHT22;56125;52.242;4.756;2022-11-12T16:57:59;18.60;57.00
69054;DHT22;56125;52.242;4.756;2022-11-12T17:03:00;18.60;57.10
69054;DHT22;56125;52.242;4.756;2022-11-12T17:08:01;18.60;57.00
69054;DHT22;56125;52.242;4.756;2022-11-12T17:13:02;18.60;56.90
69054;DHT22;56125;52.242;4.756;2022-11-12T17:18:03;18.60;56.90
69054;DHT22;56125;52.242;4.756;2022-11-12T17:23:04;18.60;57.00
69054;DHT22;56125;52.242;4.756;2022-11-12T17:28:05;18.60;56.90
69054;DHT22;56125;52.242;4.756;2022-11-12T17:33:06;18.60;56.90
69054;DHT22;56125;52.242;4.756;2022-11-12T17:38:07;18.60;56.90
69054;DHT22;56125;52.242;4.756;2022-11-12T17:43:08;18.60;56.90
69054;DHT22;56125;52.242;4.756;2022-11-12T17:48:09;18.50;56.80
69054;DHT22;56125;52.242;4.756;2022-11-12T17:53:11;18.60;57.00
69054;DHT22;56125;52.242;4.756;2022-11-12T17:58:12;18.50;57.10
69054;DHT22;56125;52.242;4.756;2022-11-12T18:03:13;18.50;57.10
69054;DHT22;56125;52.242;4.756;2022-11-12T18:08:14;18.50;57.10
69054;DHT22;56125;52.242;4.756;2022-11-12T18:13:15;18.50;57.20
69054;DHT22;56125;52.242;4.756;2022-11-12T18:18:16;18.50;57.10
69054;DHT22;56125;52.242;4.756;2022-11-12T18:23:18;18.50;57.30
69054;DHT22;56125;52.242;4.756;2022-11-12T18:28:19;18.50;57.40
69054;DHT22;56125;52.242;4.756;2022-11-12T18:33:20;18.50;57.40
69054;DHT22;56125;52.242;4.756;2022-11-12T18:38:21;18.50;57.50
69054;DHT22;56125;52.242;4.756;2022-11-12T18:43:22;18.50;57.40
69054;DHT22;56125;52.242;4.756;2022-11-12T18:48:23;18.50;57.40
69054;DHT22;56125;52.242;4.756;2022-11-12T18:53:26;18.50;57.50
69054;DHT22;56125;52.242;4.756;2022-11-12T18:58:27;18.50;57.50
69054;DHT22;56125;52.242;4.756;2022-11-12T19:03:28;18.50;57.50
69054;DHT22;56125;52.242;4.756;2022-11-12T19:08:29;18.50;57.50
69054;DHT22;56125;52.242;4.756;2022-11-12T19:13:30;18.50;57.40
69054;DHT22;56125;52.242;4.756;2022-11-12T19:18:31;18.40;57.50
69054;DHT22;56125;52.242;4.756;2022-11-12T19:23:33;18.40;57.50
69054;DHT22;56125;52.242;4.756;2022-11-12T19:28:34;18.40;57.50
69054;DHT22;56125;52.242;4.756;2022-11-12T19:33:35;18.40;57.40
69054;DHT22;56125;52.242;4.756;2022-11-12T19:38:36;18.40;57.60
69054;DHT22;56125;52.242;4.756;2022-11-12T19:43:37;18.40;57.50
69054;DHT22;56125;52.242;4.756;2022-11-12T19:48:40;18.40;57.60
69054;DHT22;56125;52.242;4.756;2022-11-12T19:53:42;18.40;57.60
69054;DHT22;56125;52.242;4.756;2022-11-12T19:58:46;18.40;57.60
69054;DHT22;56125;52.242;4.756;2022-11-12T20:03:48;18.40;57.60
69054;DHT22;56125;52.242;4.756;2022-11-12T20:08:49;18.40;57.50
69054;DHT22;56125;52.242;4.756;2022-11-12T20:13:53;18.40;58.60
69054;DHT22;56125;52.242;4.756;2022-11-12T20:18:54;18.40;57.60
69054;DHT22;56125;52.242;4.756;2022-11-12T20:23:55;18.40;57.60
69054;DHT22;56125;52.242;4.756;2022-11-12T20:28:56;18.40;57.60
69054;DHT22;56125;52.242;4.756;2022-11-12T20:33:58;18.40;57.70
69054;DHT22;56125;52.242;4.756;2022-11-12T20:39:00;18.40;57.60
69054;DHT22;56125;52.242;4.756;2022-11-12T20:44:01;18.40;57.60
69054;DHT22;56125;52.242;4.756;2022-11-12T20:49:02;18.30;57.50
69054;DHT22;56125;52.242;4.756;2022-11-12T20:54:08;18.30;57.50
69054;DHT22;56125;52.242;4.756;2022-11-12T20:59:09;18.30;57.50
69054;DHT22;56125;52.242;4.756;2022-11-12T21:04:10;18.30;57.60
69054;DHT22;56125;52.242;4.756;2022-11-12T21:09:12;18.30;57.60
69054;DHT22;56125;52.242;4.756;2022-11-12T21:14:13;18.30;57.60
69054;DHT22;56125;52.242;4.756;2022-11-12T21:19:14;18.30;57.60
69054;DHT22;56125;52.242;4.756;2022-11-12T21:24:16;18.30;57.60
69054;DHT22;56125;52.242;4.756;2022-11-12T21:29:17;18.30;57.60
69054;DHT22;56125;52.242;4.756;2022-11-12T21:34:18;18.30;57.50
69054;DHT22;56125;52.242;4.756;2022-11-12T21:39:19;18.30;57.60
69054;DHT22;56125;52.242;4.756;2022-11-12T21:44:20;18.30;57.50
69054;DHT22;56125;52.242;4.756;2022-11-12T21:49:21;18.30;57.50
69054;DHT22;56125;52.242;4.756;2022-11-12T21:54:22;18.30;57.60
69054;DHT22;56125;52.242;4.756;2022-11-12T21:59:23;18.30;58.40
69054;DHT22;56125;52.242;4.756;2022-11-12T22:04:24;18.30;57.20
69054;DHT22;56125;52.242;4.756;2022-11-12T22:09:25;18.30;57.20
69054;DHT22;56125;52.242;4.756;2022-11-12T22:14:26;18.30;57.00
69054;DHT22;56125;52.242;4.756;2022-11-12T22:19:27;18.30;57.90
69054;DHT22;56125;52.242;4.756;2022-11-12T22:24:28;18.20;56.80
69054;DHT22;56125;52.242;4.756;2022-11-12T22:29:29;18.30;56.80
69054;DHT22;56125;52.242;4.756;2022-11-12T22:34:30;18.20;56.50
69054;DHT22;56125;52.242;4.756;2022-11-12T22:39:31;18.20;56.60
69054;DHT22;56125;52.242;4.756;2022-11-12T22:44:32;18.20;56.50
69054;DHT22;56125;52.242;4.756;2022-11-12T22:49:33;18.20;56.50
69054;DHT22;56125;52.242;4.756;2022-11-12T22:54:34;18.20;56.40
69054;DHT22;56125;52.242;4.756;2022-11-12T22:59:35;18.20;56.40
69054;DHT22;56125;52.242;4.756;2022-11-12T23:04:36;18.20;56.40
69054;DHT22;56125;52.242;4.756;2022-11-12T23:09:37;18.20;56.30
69054;DHT22;56125;52.242;4.756;2022-11-12T23:14:38;18.20;56.30
69054;DHT22;56125;52.242;4.756;2022-11-12T23:19:39;18.20;56.20
69054;DHT22;56125;52.242;4.756;2022-11-12T23:24:40;18.20;56.20
69054;DHT22;56125;52.242;4.756;2022-11-12T23:29:41;18.20;56.10
69054;DHT22;56125;52.242;4.756;2022-11-12T23:34:42;18.20;57.20
69054;DHT22;56125;52.242;4.756;2022-11-12T23:39:43;18.20;56.10
69054;DHT22;56125;52.242;4.756;2022-11-12T23:44:44;18.20;56.10
69054;DHT22;56125;52.242;4.756;2022-11-12T23:49:46;18.20;56.10
69054;DHT22;56125;52.242;4.756;2022-11-12T23:54:47;18.10;56.00
69054;DHT22;56125;52.242;4.756;2022-11-12T23:59:48;18.20;56.10
